Allouez, Michigan
Current Conditions -  °F | °C
As of 8:27 AM on Thursday 27 Nov 2014 (Local Time) from KCMX Reporting Station
Light Snow Light Snow  
Wind Chill: -8°   Ceiling: 2100
Heat Index:   Visibility: 2.5mi
Dew Point:   Wind: 12mph
Humidity: 73%   Direction: 360°N
Pressure: 30.3"   Gusts: NA
Location:  47.29°N, 88.41°W
Report Text: KCMX 271327Z AUTO 36010KT 2 1/2SM -SN BKN021 OVC032 M14/M18 A3030 RMK AO2 SNB05 P0000 T11391178
Loading
Personal Weather Stations






























Interactive Weather Map New forecast layout! Learn more

10-Day Weather Forecast

Advertisements
Track Severe Weather on mobile